createdAt,value
2018-03-03T00:00:38.425Z,141.10
2018-03-03T00:03:06.702Z,146.25
2018-03-03T00:05:34.250Z,142.73
2018-03-03T00:08:01.767Z,147.00
2018-03-03T00:10:29.305Z,141.57
2018-03-03T00:12:57.602Z,135.55
2018-03-03T00:15:25.127Z,144.45
2018-03-03T00:17:53.552Z,142.57
2018-03-03T00:20:21.079Z,140.88
2018-03-03T00:22:48.632Z,141.90
2018-03-03T00:25:16.191Z,140.88
2018-03-03T00:27:43.706Z,148.15
2018-03-03T00:30:11.959Z,142.68
2018-03-03T00:32:39.466Z,153.38
2018-03-03T00:35:07.003Z,145.10
2018-03-03T00:37:34.506Z,154.77
2018-03-03T00:40:02.052Z,142.55
2018-03-03T00:42:30.337Z,147.87
2018-03-03T00:44:57.880Z,140.07
2018-03-03T00:47:26.429Z,143.07
2018-03-03T00:49:53.984Z,137.75
2018-03-03T00:52:21.503Z,130.80
2018-03-03T00:54:49.040Z,136.85
2018-03-03T00:57:17.314Z,151.05
2018-03-03T00:59:45.598Z,147.55
2018-03-03T01:02:13.867Z,143.18
2018-03-03T01:04:42.168Z,148.40
2018-03-03T01:07:09.708Z,146.50
2018-03-03T01:09:37.992Z,149.43
2018-03-03T01:12:06.310Z,146.20
2018-03-03T01:14:33.850Z,152.10
2018-03-03T01:17:01.361Z,150.82
2018-03-03T01:19:28.900Z,139.25
2018-03-03T01:21:56.431Z,143.98
2018-03-03T01:24:23.928Z,147.05
2018-03-03T01:26:51.479Z,139.62
2018-03-03T01:29:19.011Z,137.95
2018-03-03T01:31:46.539Z,140.80
2018-03-03T01:34:14.829Z,150.00
2018-03-03T01:36:42.347Z,152.73
2018-03-03T01:39:09.872Z,141.00
2018-03-03T01:41:37.393Z,145.57
2018-03-03T01:44:05.665Z,149.68
2018-03-03T01:46:33.972Z,153.98
2018-03-03T01:49:01.493Z,148.40
2018-03-03T01:51:41.675Z,145.35
2018-03-03T01:54:09.191Z,145.98
2018-03-03T01:56:36.732Z,139.40
2018-03-03T01:59:04.238Z,151.57
2018-03-03T02:01:32.532Z,142.07
2018-03-03T02:04:00.827Z,149.15
2018-03-03T02:06:28.344Z,152.12
2018-03-03T02:08:55.899Z,144.27
2018-03-03T02:11:24.175Z,155.90
2018-03-03T02:13:51.736Z,146.82
2018-03-03T02:16:20.021Z,138.32
2018-03-03T02:18:47.547Z,145.12
2018-03-03T02:21:15.104Z,149.27
2018-03-03T02:23:42.622Z,148.75
2018-03-03T02:26:10.166Z,149.38
2018-03-03T02:28:37.675Z,148.00
2018-03-03T02:31:05.186Z,149.18
2018-03-03T02:33:32.729Z,150.98
2018-03-03T02:36:00.274Z,144.62
2018-03-03T02:38:28.559Z,139.88
2018-03-03T02:40:56.095Z,148.23
2018-03-03T02:43:23.673Z,152.93
2018-03-03T02:45:51.971Z,144.40
2018-03-03T02:48:19.519Z,138.80
2018-03-03T02:50:47.047Z,144.73
2018-03-03T02:53:14.584Z,143.95
2018-03-03T02:55:42.108Z,152.40
2018-03-03T02:58:09.602Z,143.62
2018-03-03T03:00:37.151Z,150.40
2018-03-03T03:03:04.678Z,149.80
2018-03-03T03:05:32.192Z,155.43
2018-03-03T03:07:59.738Z,143.13
2018-03-03T03:10:27.248Z,155.40
2018-03-03T03:12:54.799Z,147.77
2018-03-03T03:15:23.094Z,148.25
2018-03-03T03:17:50.627Z,155.00
2018-03-03T03:20:18.144Z,148.50
2018-03-03T03:22:45.665Z,161.07
2018-03-03T03:25:13.213Z,160.88
2018-03-03T03:27:41.512Z,151.50
2018-03-03T03:30:09.068Z,154.57
2018-03-03T03:32:36.578Z,161.85
2018-03-03T03:35:04.869Z,166.37
2018-03-03T03:37:32.407Z,156.82
2018-03-03T03:39:59.905Z,155.05
2018-03-03T03:42:27.440Z,164.52
2018-03-03T03:44:54.946Z,155.40
2018-03-03T03:47:22.467Z,157.10
2018-03-03T03:49:50.016Z,156.10
2018-03-03T03:52:18.333Z,156.50
2018-03-03T03:54:45.868Z,146.45
2018-03-03T03:57:14.155Z,150.68
2018-03-03T03:59:41.683Z,159.05
2018-03-03T04:02:09.216Z,139.82
2018-03-03T04:04:36.739Z,149.82
2018-03-03T04:07:04.284Z,159.30
2018-03-03T04:09:31.790Z,154.05
2018-03-03T04:11:59.300Z,160.43
2018-03-03T04:14:27.607Z,151.10
2018-03-03T04:16:55.106Z,160.63
2018-03-03T04:19:22.640Z,159.63
2018-03-03T04:21:50.162Z,168.52
2018-03-03T04:24:17.703Z,161.80
2018-03-03T04:26:45.982Z,158.20
2018-03-03T04:29:14.278Z,160.15
2018-03-03T04:31:41.916Z,150.70
2018-03-03T04:34:10.188Z,155.07
2018-03-03T04:36:38.470Z,161.32
2018-03-03T04:39:06.039Z,164.55
2018-03-03T04:41:33.578Z,152.20
2018-03-03T04:44:01.873Z,148.75
2018-03-03T04:46:29.392Z,153.05
2018-03-03T04:48:56.924Z,163.95
2018-03-03T04:51:24.454Z,152.65
2018-03-03T04:53:51.995Z,155.70
2018-03-03T04:56:20.410Z,152.57
2018-03-03T04:58:54.566Z,156.10
2018-03-03T05:01:22.569Z,155.35
2018-03-03T05:03:56.783Z,153.05
2018-03-03T05:09:31.443Z,163.87
2018-03-03T05:11:58.962Z,168.37
2018-03-03T05:14:32.305Z,165.77
2018-03-03T05:17:05.443Z,164.75
2018-03-03T05:19:38.721Z,162.05
2018-03-03T05:22:26.074Z,166.55
2018-03-03T05:24:59.269Z,162.55
2018-03-03T05:27:43.414Z,156.20
2018-03-03T05:30:29.399Z,155.95
2018-03-03T05:33:15.655Z,152.12
2018-03-03T05:35:54.063Z,159.82
2018-03-03T05:38:36.504Z,156.63
2018-03-03T05:41:19.696Z,162.75
2018-03-03T05:44:03.946Z,160.60
2018-03-03T05:46:37.113Z,144.73
2018-03-03T05:49:22.372Z,150.90
2018-03-03T05:51:56.337Z,154.48
2018-03-03T05:54:34.724Z,151.95
2018-03-03T06:00:12.836Z,160.93
2018-03-03T06:02:46.736Z,151.05
2018-03-03T06:05:20.624Z,147.50
2018-03-03T06:07:53.713Z,164.62
2018-03-03T06:10:21.846Z,155.87
2018-03-03T06:12:49.371Z,162.40
2018-03-03T06:15:16.891Z,164.70
2018-03-03T06:17:44.408Z,155.43
2018-03-03T06:20:11.959Z,174.27
2018-03-03T06:22:39.492Z,162.62
2018-03-03T06:25:07.770Z,174.00
2018-03-03T06:27:35.286Z,175.02
2018-03-03T06:30:02.809Z,179.85
2018-03-03T06:32:30.339Z,181.25
2018-03-03T06:34:58.622Z,175.48
2018-03-03T06:37:26.918Z,179.80
2018-03-03T06:39:54.444Z,170.85
2018-03-03T06:42:22.737Z,170.18
2018-03-03T06:44:51.052Z,172.95
2018-03-03T06:47:18.597Z,174.57
2018-03-03T06:49:46.125Z,154.00
2018-03-03T06:52:13.680Z,161.45
2018-03-03T06:54:41.965Z,172.35
2018-03-03T06:57:10.261Z,172.05
2018-03-03T06:59:37.771Z,160.75
2018-03-03T07:02:05.314Z,168.70
2018-03-03T07:04:32.869Z,166.93
2018-03-03T07:07:00.406Z,164.65
2018-03-03T07:09:27.917Z,164.73
2018-03-03T07:11:55.452Z,173.18
2018-03-03T07:14:40.881Z,173.43
2018-03-03T07:17:08.406Z,186.10
2018-03-03T07:19:35.937Z,175.10
2018-03-03T07:22:03.448Z,188.30
2018-03-03T07:24:31.753Z,189.77
2018-03-03T07:26:59.274Z,183.70
2018-03-03T07:29:27.571Z,172.45
2018-03-03T07:31:55.090Z,194.37
2018-03-03T07:34:22.680Z,176.10
2018-03-03T07:36:50.966Z,173.90
2018-03-03T07:39:19.258Z,174.05
2018-03-03T07:41:46.804Z,169.75
2018-03-03T07:44:14.357Z,177.45
2018-03-03T07:46:41.885Z,172.65
2018-03-03T07:49:09.408Z,170.70
2018-03-03T07:51:36.917Z,167.00
2018-03-03T07:54:05.248Z,178.75
2018-03-03T07:56:44.583Z,184.27
2018-03-03T07:59:12.135Z,180.00
2018-03-03T08:01:39.664Z,172.98
2018-03-03T08:04:07.970Z,171.23
2018-03-03T08:06:35.470Z,168.37
2018-03-03T08:09:03.063Z,172.20
2018-03-03T08:11:30.595Z,172.27
2018-03-03T08:13:58.967Z,174.98
2018-03-03T08:16:26.478Z,165.10
2018-03-03T08:18:54.040Z,171.37
2018-03-03T08:21:21.547Z,177.85
2018-03-03T08:23:49.109Z,164.98
2018-03-03T08:26:18.366Z,171.70
2018-03-03T08:28:45.917Z,177.65
2018-03-03T08:31:14.328Z,175.05
2018-03-03T08:33:41.897Z,174.30
2018-03-03T08:36:09.415Z,184.60
2018-03-03T08:38:36.960Z,187.98
2018-03-03T08:41:04.479Z,168.98
2018-03-03T08:43:32.765Z,167.80
2018-03-03T08:46:01.063Z,174.07
2018-03-03T08:48:28.598Z,168.25
2018-03-03T08:50:56.992Z,169.07
2018-03-03T08:53:25.281Z,172.50
2018-03-03T08:55:52.804Z,164.00
2018-03-03T08:58:20.326Z,167.80
2018-03-03T09:00:47.856Z,176.55
2018-03-03T09:03:15.402Z,168.15
2018-03-03T09:05:42.931Z,173.75
2018-03-03T09:08:10.499Z,167.32
2018-03-03T09:10:38.136Z,170.25
2018-03-03T09:13:05.644Z,164.32
2018-03-03T09:15:33.210Z,166.12
2018-03-03T09:18:00.725Z,165.02
2018-03-03T09:20:28.390Z,162.00
2018-03-03T09:22:55.923Z,172.82
2018-03-03T09:25:23.488Z,171.85
2018-03-03T09:27:50.987Z,165.52
2018-03-03T09:30:19.267Z,166.45
2018-03-03T09:32:47.579Z,165.95
2018-03-03T09:35:15.082Z,161.10
2018-03-03T09:37:42.630Z,160.37
2018-03-03T09:40:10.156Z,167.73
2018-03-03T09:42:37.677Z,164.57
2018-03-03T09:45:06.010Z,167.00
2018-03-03T09:47:33.526Z,159.95
2018-03-03T09:50:01.063Z,157.88
2018-03-03T09:52:29.338Z,171.20
2018-03-03T09:54:56.934Z,170.75
2018-03-03T09:57:24.479Z,174.20
2018-03-03T09:59:52.021Z,189.23
2018-03-03T10:02:20.327Z,159.25
2018-03-03T10:04:47.889Z,168.45
2018-03-03T10:07:15.402Z,172.23
2018-03-03T10:09:43.767Z,171.30
2018-03-03T10:12:11.292Z,167.85
2018-03-03T10:14:38.790Z,165.70
2018-03-03T10:17:06.392Z,161.40
2018-03-03T10:19:33.895Z,155.35
2018-03-03T10:22:01.440Z,156.73
2018-03-03T10:24:28.960Z,161.93
2018-03-03T10:26:56.486Z,159.48
2018-03-03T10:29:24.035Z,148.32
2018-03-03T10:31:51.664Z,160.57
2018-03-03T10:34:19.321Z,164.65
2018-03-03T10:36:46.839Z,157.12
2018-03-03T10:39:15.256Z,159.63
2018-03-03T10:41:42.802Z,166.00
2018-03-03T10:44:10.372Z,158.55
2018-03-03T10:46:37.867Z,155.87
2018-03-03T10:49:05.385Z,167.13
2018-03-03T10:51:32.959Z,167.45
2018-03-03T10:54:00.487Z,157.32
2018-03-03T10:56:28.811Z,163.07
2018-03-03T10:58:56.339Z,156.45
2018-03-03T11:01:23.846Z,149.57
2018-03-03T11:03:51.406Z,149.60
2018-03-03T11:06:18.976Z,153.35
2018-03-03T11:08:46.502Z,141.80
2018-03-03T11:11:14.025Z,136.65
2018-03-03T11:13:41.591Z,140.52
2018-03-03T11:16:09.137Z,150.43
2018-03-03T11:18:37.407Z,143.07
2018-03-03T11:21:05.717Z,142.77
2018-03-03T11:23:33.338Z,132.50
2018-03-03T11:26:01.609Z,154.85
2018-03-03T11:28:29.908Z,136.05
2018-03-03T11:30:57.466Z,135.60
2018-03-03T11:33:25.069Z,134.05
2018-03-03T11:35:52.595Z,142.52
2018-03-03T11:38:20.885Z,136.75
2018-03-03T11:40:49.624Z,140.07
2018-03-03T11:43:18.498Z,141.77
2018-03-03T11:45:46.048Z,135.32
2018-03-03T11:48:13.598Z,141.65
2018-03-03T11:50:41.136Z,142.70
2018-03-03T11:53:08.663Z,137.57
2018-03-03T11:55:36.985Z,159.70
2018-03-03T11:58:04.519Z,134.20
2018-03-03T12:00:32.051Z,134.65
2018-03-03T12:03:00.406Z,136.02
2018-03-03T12:05:27.903Z,128.85
2018-03-03T12:07:55.434Z,124.28
2018-03-03T12:10:22.978Z,133.60
2018-03-03T12:12:50.541Z,131.37
2018-03-03T12:15:18.120Z,134.17
2018-03-03T12:17:46.910Z,116.77
2018-03-03T12:20:18.467Z,124.70
2018-03-03T12:22:49.223Z,118.13
2018-03-03T12:25:17.629Z,128.90
2018-03-03T12:27:46.140Z,126.30
2018-03-03T12:30:13.686Z,127.00
2018-03-03T12:32:41.199Z,124.97
2018-03-03T12:35:08.785Z,112.83
2018-03-03T12:37:36.327Z,120.03
2018-03-03T12:40:03.865Z,130.63
2018-03-03T12:42:31.416Z,125.17
2018-03-03T12:44:59.741Z,127.60
2018-03-03T12:47:27.295Z,125.67
2018-03-03T12:49:54.919Z,112.37
2018-03-03T12:52:23.274Z,118.10
2018-03-03T12:54:50.809Z,114.10
2018-03-03T12:57:18.417Z,109.10
2018-03-03T12:59:46.900Z,113.40
2018-03-03T13:02:14.790Z,108.20
2018-03-03T13:04:42.488Z,113.67
2018-03-03T13:07:10.076Z,129.37
2018-03-03T13:09:38.398Z,123.10
2018-03-03T13:12:05.935Z,123.77
2018-03-03T13:14:33.504Z,122.57
2018-03-03T13:17:02.061Z,129.00
2018-03-03T13:19:30.559Z,125.43
2018-03-03T13:21:58.382Z,125.43
2018-03-03T13:24:26.071Z,124.90
2018-03-03T13:26:55.313Z,129.37
2018-03-03T13:29:22.865Z,130.33
2018-03-03T13:31:50.434Z,129.80
2018-03-03T13:34:17.966Z,143.03
2018-03-03T13:36:46.295Z,135.07
2018-03-03T13:39:13.825Z,127.93
2018-03-03T13:41:41.359Z,147.83
2018-03-03T13:44:08.939Z,138.07
2018-03-03T13:46:36.474Z,140.13
2018-03-03T13:49:04.016Z,146.60
2018-03-03T13:51:32.341Z,138.60
2018-03-03T13:53:59.879Z,141.77
2018-03-03T13:56:27.392Z,141.90
2018-03-03T13:58:54.903Z,140.83
2018-03-03T14:01:22.407Z,135.60
2018-03-03T14:03:49.942Z,144.27
2018-03-03T14:06:17.773Z,143.93
2018-03-03T14:08:45.328Z,148.50
2018-03-03T14:11:12.841Z,153.70
2018-03-03T14:13:40.343Z,144.17
2018-03-03T14:16:07.865Z,154.87
2018-03-03T14:18:35.400Z,149.15
2018-03-03T14:21:02.976Z,153.62
2018-03-03T14:23:34.711Z,147.50
2018-03-03T14:26:02.264Z,149.57
2018-03-03T14:28:30.956Z,150.30
2018-03-03T14:30:58.539Z,148.30
2018-03-03T14:33:26.101Z,150.20
2018-03-03T14:35:53.691Z,153.60
2018-03-03T14:38:22.016Z,142.90
2018-03-03T14:40:49.556Z,147.98
2018-03-03T14:43:17.123Z,151.37
2018-03-03T14:45:44.665Z,147.55
2018-03-03T14:48:12.220Z,151.43
2018-03-03T14:50:39.771Z,138.77
2018-03-03T14:53:07.306Z,150.77
2018-03-03T14:55:34.857Z,143.93
2018-03-03T14:58:02.362Z,142.75
2018-03-03T15:00:29.907Z,141.95
2018-03-03T15:02:57.424Z,154.12
2018-03-03T15:05:25.018Z,144.52
2018-03-03T15:07:52.610Z,151.07
2018-03-03T15:10:20.147Z,150.45
2018-03-03T15:12:47.685Z,141.60
2018-03-03T15:15:15.219Z,156.48
2018-03-03T15:17:42.755Z,148.30
2018-03-03T15:20:10.291Z,152.12
2018-03-03T15:22:37.806Z,153.68
2018-03-03T15:25:05.404Z,157.20
2018-03-03T15:27:32.895Z,158.23
2018-03-03T15:30:00.404Z,164.77
2018-03-03T15:32:55.368Z,149.77
2018-03-03T15:35:22.959Z,157.57
2018-03-03T15:40:39.549Z,155.18
2018-03-03T15:46:00.149Z,142.45
2018-03-03T15:51:42.512Z,266.90
2018-03-03T16:00:41.260Z,179.35
2018-03-03T16:03:09.583Z,147.82
2018-03-03T16:05:37.097Z,155.85
2018-03-03T16:08:05.433Z,162.60
2018-03-03T16:10:32.981Z,154.35
2018-03-03T16:13:00.504Z,158.05
2018-03-03T16:15:28.083Z,153.35
2018-03-03T16:17:55.597Z,149.12
2018-03-03T16:20:23.148Z,157.73
2018-03-03T16:22:50.659Z,149.62
2018-03-03T16:25:18.217Z,152.87
2018-03-03T16:27:45.739Z,158.45
2018-03-03T16:30:13.271Z,163.10
2018-03-03T16:32:40.779Z,191.20
2018-03-03T16:35:08.315Z,161.27
2018-03-03T16:37:37.886Z,160.57
2018-03-03T16:40:09.372Z,150.38
2018-03-03T16:45:44.394Z,151.23
2018-03-03T16:51:01.412Z,160.43
2018-03-03T16:53:28.936Z,158.37
2018-03-03T16:55:56.521Z,145.07
2018-03-03T16:58:24.626Z,137.93
2018-03-03T17:00:52.124Z,162.70
2018-03-03T17:03:26.555Z,159.98
2018-03-03T17:05:54.307Z,141.60
2018-03-03T17:08:22.636Z,150.32
2018-03-03T17:10:50.195Z,158.75
2018-03-03T17:13:17.716Z,157.43
2018-03-03T17:15:45.216Z,154.18
2018-03-03T17:18:12.747Z,159.98
2018-03-03T17:20:40.290Z,158.10
2018-03-03T17:23:07.802Z,175.40
2018-03-03T17:25:35.348Z,248.65
2018-03-03T17:28:02.889Z,165.62
2018-03-03T17:30:31.199Z,140.95
2018-03-03T17:32:58.791Z,137.30
2018-03-03T17:35:27.074Z,137.73
2018-03-03T17:37:54.600Z,359.05
2018-03-03T17:40:22.143Z,212.80
2018-03-03T17:42:49.692Z,171.10
2018-03-03T17:45:17.240Z,156.50
2018-03-03T17:47:44.784Z,137.50
2018-03-03T17:50:12.355Z,148.13
2018-03-03T17:52:39.953Z,148.40
2018-03-03T17:55:07.583Z,147.23
2018-03-03T17:57:35.128Z,139.10
2018-03-03T18:00:02.687Z,162.43
2018-03-03T18:02:30.482Z,165.70
2018-03-03T18:04:58.272Z,230.87
2018-03-03T18:07:25.871Z,234.02
2018-03-03T18:09:53.384Z,217.93
2018-03-03T18:12:21.038Z,226.52
2018-03-03T18:14:49.239Z,207.75
2018-03-03T18:17:16.863Z,217.68
2018-03-03T18:19:44.398Z,241.75
2018-03-03T18:22:29.471Z,218.55
2018-03-03T18:24:58.084Z,219.55
2018-03-03T18:27:26.675Z,213.30
2018-03-03T18:29:54.273Z,207.75
2018-03-03T18:32:23.597Z,223.10
2018-03-03T18:34:51.336Z,224.93
2018-03-03T18:37:18.903Z,232.77
2018-03-03T18:39:46.426Z,217.05
2018-03-03T18:42:14.232Z,215.35
2018-03-03T18:44:42.611Z,232.90
2018-03-03T18:47:10.355Z,221.57
2018-03-03T18:49:38.086Z,217.18
2018-03-03T18:52:05.597Z,217.20
2018-03-03T18:54:34.772Z,226.80
2018-03-03T18:57:03.088Z,223.57
2018-03-03T18:59:30.929Z,217.65
2018-03-03T19:01:58.599Z,227.05
2018-03-03T19:04:26.164Z,222.73
2018-03-03T19:06:54.445Z,215.75
2018-03-03T19:09:22.786Z,206.52
2018-03-03T19:11:51.441Z,221.05
2018-03-03T19:14:19.103Z,223.38
2018-03-03T19:16:46.741Z,210.95
2018-03-03T19:19:15.136Z,231.02
2018-03-03T19:21:42.675Z,240.45
2018-03-03T19:24:10.222Z,228.32
2018-03-03T19:26:38.626Z,213.35
2018-03-03T19:29:06.211Z,217.32
2018-03-03T19:31:34.528Z,240.15
2018-03-03T19:34:05.982Z,243.48
2018-03-03T19:36:33.522Z,224.23
2018-03-03T19:39:01.042Z,211.32
2018-03-03T19:41:28.705Z,205.95
2018-03-03T19:43:56.270Z,219.57
2018-03-03T19:46:24.595Z,215.98
2018-03-03T19:48:52.148Z,199.50
2018-03-03T19:51:21.142Z,223.18
2018-03-03T19:53:56.078Z,210.88
2018-03-03T19:56:29.752Z,220.00
2018-03-03T19:58:58.687Z,224.65
2018-03-03T20:04:05.131Z,223.73
2018-03-03T20:06:33.414Z,223.93
2018-03-03T20:09:01.716Z,216.30
2018-03-03T20:11:29.849Z,233.10
2018-03-03T20:13:59.011Z,224.62
2018-03-03T20:16:27.698Z,223.75
2018-03-03T20:18:56.328Z,219.52
2018-03-03T20:21:23.858Z,224.48
2018-03-03T20:23:52.785Z,232.07
2018-03-03T20:26:22.171Z,215.57
2018-03-03T20:28:50.041Z,223.32
2018-03-03T20:31:17.627Z,206.18
2018-03-03T20:33:45.193Z,227.32
2018-03-03T20:36:12.943Z,221.43
2018-03-03T20:38:44.036Z,229.65
2018-03-03T20:41:28.469Z,230.07
2018-03-03T20:43:56.021Z,223.38
2018-03-03T20:46:23.668Z,224.07
2018-03-03T20:48:52.215Z,215.73
2018-03-03T20:51:20.665Z,201.80
2018-03-03T20:53:48.198Z,223.15
2018-03-03T20:56:15.739Z,212.40
2018-03-03T20:58:52.447Z,230.18
2018-03-03T21:01:20.238Z,216.68
2018-03-03T21:03:48.058Z,221.75
2018-03-03T21:06:15.599Z,215.68
2018-03-03T21:08:43.924Z,208.32
2018-03-03T21:11:14.072Z,205.12
2018-03-03T21:13:41.596Z,210.57
2018-03-03T21:16:09.585Z,237.57
2018-03-03T21:18:37.338Z,237.90
2018-03-03T21:21:05.171Z,320.70
2018-03-03T21:23:32.755Z,258.17
2018-03-03T21:26:00.494Z,245.70
2018-03-03T21:28:28.458Z,237.85
2018-03-03T21:30:56.355Z,261.92
2018-03-03T21:33:23.878Z,267.40
2018-03-03T21:35:52.201Z,220.88
2018-03-03T21:41:00.978Z,234.35
2018-03-03T21:43:29.288Z,230.90
2018-03-03T21:45:56.817Z,236.95
2018-03-03T21:48:25.322Z,231.43
2018-03-03T21:50:52.862Z,233.82
2018-03-03T21:53:21.373Z,239.23
2018-03-03T21:55:49.306Z,235.15
2018-03-03T21:58:16.933Z,224.68
2018-03-03T22:00:45.273Z,227.87
2018-03-03T22:03:12.768Z,215.15
2018-03-03T22:05:40.566Z,241.00
2018-03-03T22:08:09.510Z,215.57
2018-03-03T22:10:38.288Z,228.55
2018-03-03T22:13:06.625Z,224.62
2018-03-03T22:15:34.914Z,227.23
2018-03-03T22:18:02.486Z,222.98
2018-03-03T22:20:30.393Z,207.27
2018-03-03T22:22:58.441Z,237.73
2018-03-03T22:25:26.033Z,225.85
2018-03-03T22:27:54.759Z,246.27
2018-03-03T22:30:22.496Z,238.68
2018-03-03T22:32:50.301Z,250.60
2018-03-03T22:35:17.883Z,270.65
2018-03-03T22:37:45.377Z,239.05
2018-03-03T22:40:12.932Z,249.00
2018-03-03T22:42:40.436Z,245.48
2018-03-03T22:45:07.951Z,235.88
2018-03-03T22:47:35.494Z,243.07
2018-03-03T22:50:02.997Z,252.82
2018-03-03T22:52:30.540Z,265.02
2018-03-03T22:54:58.841Z,240.40
2018-03-03T22:57:26.368Z,247.07
2018-03-03T22:59:53.931Z,239.50
2018-03-03T23:02:21.412Z,234.98
2018-03-03T23:04:48.955Z,248.00
2018-03-03T23:07:17.238Z,316.42
2018-03-03T23:09:45.520Z,260.40
2018-03-03T23:12:13.040Z,246.43
2018-03-03T23:14:40.560Z,221.32
2018-03-03T23:17:08.078Z,222.15
2018-03-03T23:19:35.614Z,231.32
2018-03-03T23:22:03.121Z,230.50
2018-03-03T23:24:30.658Z,216.95
2018-03-03T23:26:58.939Z,215.52
2018-03-03T23:29:27.238Z,232.77
2018-03-03T23:31:54.760Z,213.98
2018-03-03T23:34:23.056Z,227.38
2018-03-03T23:36:51.370Z,223.48
2018-03-03T23:39:18.877Z,223.40
2018-03-03T23:41:47.170Z,224.98
2018-03-03T23:44:15.455Z,232.77
2018-03-03T23:46:43.003Z,217.50
2018-03-03T23:49:11.291Z,211.25
2018-03-03T23:51:38.835Z,221.07
2018-03-03T23:54:07.144Z,212.50
2018-03-03T23:56:34.680Z,234.73
2018-03-03T23:59:02.206Z,217.25
